createdAt,value
2022-11-20T12:17:23.278Z,23.25
2022-11-20T12:19:50.371Z,24.08
2022-11-20T12:23:06.167Z,22.67
2022-11-20T12:25:39.490Z,22.35
2022-11-20T12:28:39.525Z,23.67
2022-11-20T12:31:48.585Z,22.25
2022-11-20T12:34:33.733Z,23.38
2022-11-20T12:37:23.774Z,23.08
2022-11-20T12:39:54.470Z,24.38
2022-11-20T12:43:06.428Z,23.58
2022-11-20T12:45:53.368Z,24.85
2022-11-20T12:48:35.422Z,26.33
2022-11-20T12:51:19.470Z,25.85
2022-11-20T12:56:29.207Z,26.02
2022-11-20T12:58:56.152Z,27.48
2022-11-20T13:01:51.769Z,28.42
2022-11-20T13:04:37.107Z,29.05
2022-11-20T13:07:09.658Z,30.00
2022-11-20T13:09:43.753Z,30.90
2022-11-20T13:12:35.990Z,30.27
2022-11-20T13:15:09.951Z,31.58
2022-11-20T13:20:33.639Z,32.75
2022-11-20T13:23:01.289Z,31.58
2022-11-20T13:25:40.520Z,33.70
2022-11-20T13:28:11.112Z,31.58
2022-11-20T13:30:52.157Z,34.28
2022-11-20T13:33:34.790Z,32.38
2022-11-20T13:36:22.958Z,31.75
2022-11-20T13:38:57.764Z,32.13
2022-11-20T13:41:39.187Z,31.85
2022-11-20T13:44:32.076Z,30.33
2022-11-20T13:46:59.592Z,32.88
2022-11-20T13:49:32.298Z,33.75
2022-11-20T13:52:24.830Z,30.95
2022-11-20T13:55:16.327Z,33.08
2022-11-20T13:58:22.022Z,34.05
2022-11-20T14:01:00.658Z,33.20
2022-11-20T14:03:59.120Z,34.28
2022-11-20T14:06:28.754Z,33.72
2022-11-20T14:08:57.034Z,35.47
2022-11-20T14:11:29.964Z,36.65
2022-11-20T14:14:06.292Z,35.80
2022-11-20T14:16:37.080Z,34.90
2022-11-20T14:19:22.402Z,36.58
2022-11-20T14:21:51.397Z,38.03
2022-11-20T14:24:24.627Z,37.20
2022-11-20T14:26:53.618Z,36.72
2022-11-20T14:29:27.988Z,37.67
2022-11-20T14:31:57.428Z,37.83
2022-11-20T14:34:27.838Z,37.72
2022-11-20T14:37:04.001Z,37.55
2022-11-20T14:39:39.300Z,39.58
2022-11-20T14:42:17.794Z,39.17
2022-11-20T14:44:48.928Z,40.42
2022-11-20T14:47:20.703Z,39.08
2022-11-20T14:49:49.241Z,38.03
2022-11-20T14:52:23.106Z,39.88
2022-11-20T14:54:58.096Z,39.35
2022-11-20T14:57:37.620Z,39.88
2022-11-20T15:00:14.079Z,35.85
2022-11-20T15:02:46.784Z,37.92
2022-11-20T15:05:15.874Z,39.20
2022-11-20T15:07:49.700Z,40.30
2022-11-20T15:10:20.207Z,43.30
2022-11-20T15:12:50.633Z,41.58
2022-11-20T15:15:45.484Z,41.08
2022-11-20T15:18:17.667Z,44.72
2022-11-20T15:20:45.434Z,43.15
2022-11-20T15:23:14.911Z,42.53
2022-11-20T15:25:43.128Z,52.72
2022-11-20T15:28:20.859Z,46.53
2022-11-20T15:30:49.801Z,44.63
2022-11-20T15:33:18.480Z,45.83
2022-11-20T15:35:46.406Z,43.50
2022-11-20T15:38:14.007Z,43.13
2022-11-20T15:40:41.571Z,42.85
2022-11-20T15:43:13.332Z,43.33
2022-11-20T15:45:51.799Z,45.38
2022-11-20T15:48:31.096Z,42.58
2022-11-20T15:51:34.709Z,42.80
2022-11-20T15:54:03.577Z,42.10
2022-11-20T15:56:31.216Z,41.13
2022-11-20T15:58:58.590Z,42.75
2022-11-20T16:01:26.159Z,47.38
2022-11-20T16:03:53.796Z,49.80
2022-11-20T16:06:21.229Z,54.38
2022-11-20T16:08:48.350Z,49.88
2022-11-20T16:11:18.093Z,50.17
2022-11-20T16:14:04.297Z,49.72
2022-11-20T16:16:34.854Z,51.65
2022-11-20T16:19:02.673Z,51.55
2022-11-20T16:21:32.692Z,41.72
2022-11-20T16:24:01.908Z,42.88
2022-11-20T16:26:29.728Z,45.08
2022-11-20T16:28:57.445Z,44.80
2022-11-20T16:31:24.739Z,45.63
2022-11-20T16:33:53.899Z,42.20
2022-11-20T16:36:22.891Z,36.90
2022-11-20T16:38:55.085Z,33.05
2022-11-20T16:41:23.239Z,33.92
2022-11-20T16:43:53.203Z,33.63
2022-11-20T16:46:23.837Z,34.75
2022-11-20T16:49:04.559Z,35.90
2022-11-20T16:51:35.358Z,36.42
2022-11-20T16:54:04.005Z,36.72
2022-11-20T16:56:31.880Z,34.25
2022-11-20T16:59:00.985Z,32.17
2022-11-20T17:01:29.926Z,35.05
2022-11-20T17:04:00.800Z,33.63
2022-11-20T17:06:34.531Z,35.30
2022-11-20T17:09:02.365Z,38.00
2022-11-20T17:11:29.938Z,39.90
2022-11-20T17:14:01.552Z,40.65
2022-11-20T17:16:28.614Z,39.92
2022-11-20T17:19:02.533Z,41.85
2022-11-20T17:21:32.010Z,40.72
2022-11-20T17:24:06.376Z,40.50
2022-11-20T17:26:35.348Z,40.88
2022-11-20T17:29:06.911Z,42.88
2022-11-20T17:31:36.920Z,43.55
2022-11-20T17:34:05.523Z,42.13
2022-11-20T17:36:33.609Z,39.13
2022-11-20T17:39:01.392Z,38.88
2022-11-20T17:41:30.520Z,38.22
2022-11-20T17:44:00.120Z,37.97
2022-11-20T17:46:30.216Z,39.05
2022-11-20T17:48:57.658Z,39.08
2022-11-20T17:51:31.719Z,41.20
2022-11-20T17:54:01.670Z,41.20
2022-11-20T17:56:54.828Z,40.60
2022-11-20T17:59:22.536Z,40.72
2022-11-20T18:01:50.105Z,40.00
2022-11-20T18:04:17.959Z,43.28
2022-11-20T18:06:45.149Z,42.78
2022-11-20T18:09:14.607Z,43.22
2022-11-20T18:11:43.317Z,42.05
2022-11-20T18:14:35.627Z,42.78
2022-11-20T18:17:07.708Z,43.25
2022-11-20T18:19:42.615Z,44.10
2022-11-20T18:22:16.825Z,42.63
2022-11-20T18:24:45.640Z,52.97
2022-11-20T18:27:18.891Z,44.50
2022-11-20T18:29:49.244Z,44.03
2022-11-20T18:32:16.854Z,44.97
2022-11-20T18:34:44.686Z,45.13
2022-11-20T18:37:15.542Z,47.58
2022-11-20T18:39:43.746Z,46.97
2022-11-20T18:42:34.579Z,50.92
2022-11-20T18:45:04.867Z,47.63
2022-11-20T18:47:38.461Z,46.45
2022-11-20T18:52:39.060Z,45.83
2022-11-20T18:55:07.674Z,48.42
2022-11-20T18:57:36.582Z,45.20
2022-11-20T19:00:09.324Z,45.50
2022-11-20T19:02:42.728Z,45.13
2022-11-20T19:05:16.291Z,45.60
2022-11-20T19:07:44.102Z,46.03
2022-11-20T19:10:11.803Z,46.03
